Time;durP1;ratioP1;P1;durP2;ratioP2;P2;SDS_P1;SDS_P2;PMS_P1;PMS_P2;Temp;Humidity;BMP_temperature;BMP_pressure;BME280_temperature;BME280_humidity;BME280_pressure;Samples;Min_cycle;Max_cycle;Signal;HPM_P1;HPM_P2
2021/08/12 00:02:01;;;;;;;0.00;0.00;;;;;;;23.25;71.84;99007.06;5091795;28;20032;-78
2021/08/12 00:04:28;;;;;;;0.10;0.10;;;;;;;23.26;72.13;99005.94;5098136;28;20049;-77
2021/08/12 00:06:54;;;;;;;0.20;0.20;;;;;;;23.26;72.04;99016.84;5106445;28;20024;-79
2021/08/12 00:09:19;;;;;;;0.10;0.10;;;;;;;23.23;71.73;99014.06;5100694;28;20039;-78
2021/08/12 00:11:45;;;;;;;0.00;0.00;;;;;;;23.12;72.20;99011.91;5110244;28;20031;-76
2021/08/12 00:14:10;;;;;;;0.10;0.10;;;;;;;23.09;72.04;99015.34;5095478;28;20156;-78
2021/08/12 00:16:35;;;;;;;0.30;0.30;;;;;;;23.02;72.34;99017.91;5092751;28;20042;-79
2021/08/12 00:19:02;;;;;;;0.10;0.10;;;;;;;22.97;72.29;99021.75;5101782;28;20523;-81
2021/08/12 00:21:27;;;;;;;0.10;0.10;;;;;;;22.86;73.00;99021.53;5093856;28;20059;-81
2021/08/12 00:23:53;;;;;;;0.10;0.10;;;;;;;22.77;73.05;99015.50;5093006;28;20116;-81
2021/08/12 00:26:19;;;;;;;0.05;0.05;;;;;;;22.70;73.17;99015.34;5109045;28;20053;-80
2021/08/12 00:28:45;;;;;;;0.03;0.03;;;;;;;22.65;73.59;99018.38;5105846;28;20028;-76
2021/08/12 00:31:11;;;;;;;0.00;0.00;;;;;;;22.64;73.67;99016.78;5106816;28;20437;-76
2021/08/12 00:33:37;;;;;;;0.10;0.10;;;;;;;22.62;73.54;99019.06;5091912;28;20406;-79
2021/08/12 00:36:02;;;;;;;0.20;0.20;;;;;;;22.65;73.52;99015.66;5091400;28;20024;-81
2021/08/12 00:38:28;;;;;;;0.10;0.10;;;;;;;22.65;73.60;99016.44;5097136;28;20028;-80
2021/08/12 00:40:53;;;;;;;0.15;0.15;;;;;;;22.67;73.76;99018.81;5114133;28;20114;-79
2021/08/12 00:43:19;;;;;;;0.20;0.20;;;;;;;22.67;73.55;99011.41;5108693;28;20033;-78
2021/08/12 00:45:45;;;;;;;0.10;0.10;;;;;;;22.74;73.65;99023.59;5093705;28;20039;-78
2021/08/12 00:48:10;;;;;;;0.10;0.10;;;;;;;22.76;73.62;99021.31;5094840;28;20395;-78
2021/08/12 00:50:40;;;;;;;0.10;0.10;;;;;;;22.78;73.76;99028.00;5112280;28;20040;-77
2021/08/12 00:53:06;;;;;;;0.10;0.10;;;;;;;22.80;73.71;99030.34;5113053;28;20023;-77
2021/08/12 00:55:31;;;;;;;0.17;0.17;;;;;;;22.84;73.50;99032.00;5095868;28;20028;-77
2021/08/12 00:57:57;;;;;;;0.00;0.00;;;;;;;22.84;73.15;99029.28;5109528;28;20593;-78
2021/08/12 01:00:23;;;;;;;0.05;0.05;;;;;;;22.79;72.76;99029.56;5101991;28;20437;-77
2021/08/12 01:02:48;;;;;;;0.00;0.00;;;;;;;22.89;72.75;99025.47;5099302;28;20020;-77
2021/08/12 01:05:16;;;;;;;0.38;0.38;;;;;;;22.94;72.67;99021.69;5107010;28;20038;-77
2021/08/12 01:07:51;;;;;;;0.08;0.08;;;;;;;22.97;72.67;99024.47;5093224;28;20028;-78
2021/08/12 01:10:44;;;;;;;0.00;0.00;;;;;;;22.99;72.48;99026.84;5093192;28;20039;-78
2021/08/12 01:13:16;;;;;;;0.00;0.00;;;;;;;23.03;72.25;99030.41;5110261;28;20103;-77
2021/08/12 01:15:47;;;;;;;0.10;0.10;;;;;;;23.03;72.53;99027.69;5109846;28;20063;-78
2021/08/12 01:18:45;;;;;;;0.00;0.00;;;;;;;23.02;72.75;99026.91;5101502;28;20119;-80
2021/08/12 01:21:30;;;;;;;0.00;0.00;;;;;;;23.03;72.39;99017.59;5081189;28;20075;-79
2021/08/12 01:24:02;;;;;;;0.00;0.00;;;;;;;23.01;72.04;99014.41;5093086;28;20059;-78
2021/08/12 01:26:31;;;;;;;0.10;0.10;;;;;;;23.01;71.83;99013.66;5099193;28;20046;-80
2021/08/12 01:28:59;;;;;;;0.05;0.05;;;;;;;23.00;71.74;99022.97;5113350;28;20085;-79
2021/08/12 01:31:25;;;;;;;;;;;;;;;22.97;72.01;99023.69;5097845;28;20065;-77
2021/08/12 01:34:00;;;;;;;0.10;0.10;;;;;;;22.89;72.18;99020.03;5093834;28;19916;-79
2021/08/12 01:36:26;;;;;;;0.10;0.10;;;;;;;22.85;72.34;99030.88;5103005;28;20100;-78
2021/08/12 01:38:53;;;;;;;0.10;0.10;;;;;;;22.80;72.53;99028.44;5114375;28;20028;-78
2021/08/12 01:41:21;;;;;;;0.28;0.28;;;;;;;22.76;72.84;99032.22;5100849;28;20035;-78
2021/08/12 01:43:47;;;;;;;0.00;0.00;;;;;;;22.71;72.95;99031.34;5108618;28;20498;-79
2021/08/12 01:46:13;;;;;;;0.98;0.63;;;;;;;22.65;72.91;99021.09;5092745;28;20038;-77
2021/08/12 01:48:39;;;;;;;0.10;0.10;;;;;;;22.64;73.04;99024.97;5098722;28;20035;-78
2021/08/12 01:51:05;;;;;;;0.10;0.10;;;;;;;22.58;73.42;99019.00;5112637;28;20030;-80
2021/08/12 01:53:32;;;;;;;0.03;0.03;;;;;;;22.54;73.33;99015.41;5091795;28;20035;-75
2021/08/12 01:55:58;;;;;;;0.00;0.00;;;;;;;22.54;73.30;99007.25;5093769;28;20050;-76
2021/08/12 01:58:26;;;;;;;0.10;0.10;;;;;;;22.55;73.43;99015.06;5097769;28;20028;-77
2021/08/12 02:00:53;;;;;;;0.10;0.10;;;;;;;22.57;73.23;99013.91;5096313;28;20031;-79
2021/08/12 02:03:20;;;;;;;0.10;0.10;;;;;;;22.57;73.31;99016.63;5099524;28;20047;-78
2021/08/12 02:05:47;;;;;;;0.10;0.10;;;;;;;22.54;73.50;99021.69;5094335;28;20024;-76
2021/08/12 02:08:13;;;;;;;0.10;0.10;;;;;;;22.55;73.50;99015.06;5112671;28;20023;-76
2021/08/12 02:10:41;;;;;;;0.10;0.10;;;;;;;22.56;73.53;99018.59;5096357;28;20036;-77
2021/08/12 02:13:08;;;;;;;0.00;0.00;;;;;;;22.50;73.55;99015.34;5106943;28;20028;-78
2021/08/12 02:15:34;;;;;;;0.10;0.10;;;;;;;22.49;73.43;99010.25;5104245;28;20060;-77
2021/08/12 02:17:59;;;;;;;0.00;0.00;;;;;;;22.50;73.89;99006.38;5100140;28;20089;-81
2021/08/12 02:20:25;;;;;;;0.00;0.00;;;;;;;22.47;73.79;99016.06;5110919;28;20031;-81
2021/08/12 02:22:56;;;;;;;0.08;0.08;;;;;;;22.49;73.77;99015.72;5112196;28;20470;-77
2021/08/12 02:25:33;;;;;;;0.10;0.10;;;;;;;22.47;73.59;99012.53;5100306;28;20050;-79
2021/08/12 02:28:05;;;;;;;0.08;0.08;;;;;;;22.46;73.64;99000.06;5112107;28;20031;-76
2021/08/12 02:30:36;;;;;;;0.20;0.20;;;;;;;22.47;72.70;99007.91;5107032;28;20032;-77
2021/08/12 02:33:06;;;;;;;0.17;0.17;;;;;;;22.48;72.22;99011.41;5100502;28;20111;-76
2021/08/12 02:35:35;;;;;;;0.10;0.10;;;;;;;22.48;72.17;99014.13;5104092;28;20028;-76
2021/08/12 02:38:01;;;;;;;0.00;0.00;;;;;;;22.44;72.00;99011.31;5112878;28;20024;-76
2021/08/12 02:40:29;;;;;;;0.10;0.10;;;;;;;22.48;71.60;99022.31;5106200;28;20039;-77
2021/08/12 02:42:55;;;;;;;0.10;0.10;;;;;;;22.51;71.09;99030.56;5094690;28;20030;-78
2021/08/12 02:45:24;;;;;;;0.10;0.10;;;;;;;22.52;70.60;99018.50;5091112;28;20411;-78
2021/08/12 02:47:50;;;;;;;0.00;0.00;;;;;;;22.54;70.30;99015.41;5095214;28;20441;-77
2021/08/12 02:50:16;;;;;;;0.10;0.10;;;;;;;22.57;70.16;99016.63;5092447;28;20104;-78
2021/08/12 02:52:42;;;;;;;0.10;0.10;;;;;;;22.60;70.08;99024.13;5091155;28;20028;-78
2021/08/12 02:55:09;;;;;;;0.30;0.30;;;;;;;22.62;69.95;99019.88;5111132;28;20028;-78
2021/08/12 02:57:36;;;;;;;0.00;0.00;;;;;;;22.60;69.50;99019.44;5110756;28;20024;-78
2021/08/12 03:00:03;;;;;;;0.00;0.00;;;;;;;22.66;69.55;99019.97;5110949;28;20095;-78
2021/08/12 03:02:29;;;;;;;0.10;0.10;;;;;;;22.68;69.45;99023.13;5110658;28;20031;-78
2021/08/12 03:04:54;;;;;;;0.08;0.08;;;;;;;22.61;69.09;99021.03;5093189;28;20024;-78
2021/08/12 03:07:20;;;;;;;0.00;0.00;;;;;;;22.61;69.26;99020.25;5101968;28;20169;-79
2021/08/12 03:09:50;;;;;;;0.10;0.10;;;;;;;22.62;69.25;99027.25;5101904;28;20512;-78
2021/08/12 03:12:17;;;;;;;0.10;0.10;;;;;;;22.58;69.42;99027.19;5111196;28;20042;-77
2021/08/12 03:14:44;;;;;;;0.10;0.10;;;;;;;22.53;69.71;99031.00;5092005;28;20104;-78
2021/08/12 03:17:13;;;;;;;0.10;0.10;;;;;;;22.51;69.81;99035.22;5092112;28;20495;-78
2021/08/12 03:19:40;;;;;;;0.00;0.00;;;;;;;22.45;69.95;99040.16;5092190;28;20039;-78
2021/08/12 03:22:08;;;;;;;0.05;0.05;;;;;;;22.39;70.20;99031.47;5093108;28;20114;-80
2021/08/12 03:24:34;;;;;;;;;;;;;;;22.36;70.40;99042.25;5092881;28;20032;-78
2021/08/12 03:27:00;;;;;;;0.17;0.17;;;;;;;22.29;70.84;99040.16;5106263;28;20462;-78
2021/08/12 03:29:26;;;;;;;0.00;0.00;;;;;;;22.23;71.01;99044.31;5097143;28;20036;-77
2021/08/12 03:31:51;;;;;;;0.17;0.17;;;;;;;22.15;72.10;99043.34;5096488;28;20035;-77
2021/08/12 03:34:17;;;;;;;0.10;0.10;;;;;;;22.09;72.24;99047.47;5092947;28;20059;-78
2021/08/12 03:36:42;;;;;;;0.17;0.17;;;;;;;22.01;72.43;99051.97;5091548;28;20062;-77
2021/08/12 03:39:08;;;;;;;0.10;0.10;;;;;;;22.00;72.96;99049.63;5091408;28;20395;-78
2021/08/12 03:41:34;;;;;;;0.30;0.30;;;;;;;22.00;72.84;99053.13;5091683;28;20059;-78
2021/08/12 03:43:59;;;;;;;0.57;0.43;;;;;;;22.04;72.52;99053.19;5100023;28;20034;-78
2021/08/12 03:46:24;;;;;;;0.10;0.10;;;;;;;22.13;72.34;99048.38;5111664;27;20117;-78
2021/08/12 03:48:50;;;;;;;0.17;0.17;;;;;;;22.27;71.79;99055.28;5114488;27;20487;-81
2021/08/12 03:51:15;;;;;;;0.28;0.28;;;;;;;22.44;71.15;99056.88;5093031;28;20028;-79
2021/08/12 03:53:41;;;;;;;0.30;0.30;;;;;;;22.60;70.63;99054.09;5110078;28;20084;-77
2021/08/12 03:56:06;;;;;;;0.10;0.10;;;;;;;22.83;69.90;99063.13;5103912;28;20414;-79
2021/08/12 03:58:34;;;;;;;0.20;0.20;;;;;;;23.11;69.11;99066.81;5110243;28;20019;-78
2021/08/12 04:01:00;;;;;;;0.10;0.10;;;;;;;23.45;68.23;99067.88;5105702;28;20024;-80
2021/08/12 04:03:25;;;;;;;0.10;0.08;;;;;;;23.77;66.98;99067.66;5093842;28;20054;-82
2021/08/12 04:05:51;;;;;;;0.13;0.13;;;;;;;24.09;65.94;99070.13;5106614;28;20027;-79
2021/08/12 04:08:17;;;;;;;0.45;0.45;;;;;;;24.42;64.62;99065.94;5103248;28;20079;-84
2021/08/12 04:10:42;;;;;;;0.20;0.20;;;;;;;24.75;64.51;99067.19;5104630;28;20031;-78
2021/08/12 04:13:08;;;;;;;0.10;0.10;;;;;;;25.14;63.76;99073.50;5093655;28;20019;-89
2021/08/12 04:15:34;;;;;;;0.00;0.00;;;;;;;25.51;62.66;99068.06;5101150;28;20048;-90
2021/08/12 04:17:59;;;;;;;0.10;0.10;;;;;;;25.94;61.29;99072.34;5098388;28;20020;-82
2021/08/12 04:20:25;;;;;;;0.00;0.00;;;;;;;26.36;59.86;99073.84;5090763;28;20032;-78
2021/08/12 04:22:50;;;;;;;0.20;0.20;;;;;;;26.79;58.92;99079.63;5109984;28;20031;-89
2021/08/12 04:25:16;;;;;;;0.00;0.00;;;;;;;27.24;56.37;99086.81;5091427;28;20407;-89
2021/08/12 04:27:41;;;;;;;0.00;0.00;;;;;;;27.62;55.41;99087.31;5090083;28;20028;-89
2021/08/12 04:30:08;;;;;;;0.00;0.00;;;;;;;28.00;54.26;99092.44;5107518;28;20035;-81
2021/08/12 04:32:35;;;;;;;0.00;0.00;;;;;;;28.30;53.14;99083.81;5093425;28;20486;-79
2021/08/12 04:35:02;;;;;;;0.00;0.00;;;;;;;28.66;52.88;99096.69;5104439;28;20499;-80
2021/08/12 04:37:47;;;;;;;0.00;0.00;;;;;;;28.77;51.59;99096.69;5100940;28;20027;-78
2021/08/12 04:40:15;;;;;;;0.10;0.10;;;;;;;28.87;50.20;99096.66;5090173;28;20336;-79
2021/08/12 04:42:41;;;;;;;0.00;0.00;;;;;;;28.92;50.23;99093.47;5090306;28;20028;-79
2021/08/12 04:45:07;;;;;;;0.00;0.00;;;;;;;28.98;50.44;99109.56;5089250;28;20070;-79
2021/08/12 04:47:33;;;;;;;0.00;0.00;;;;;;;28.99;50.69;99098.19;5088841;28;20036;-80
2021/08/12 04:49:58;;;;;;;0.00;0.00;;;;;;;29.00;49.95;99102.50;5089375;28;20032;-79
2021/08/12 04:52:24;;;;;;;0.00;0.00;;;;;;;29.08;50.63;99095.00;5089573;28;20028;-80
2021/08/12 04:54:50;;;;;;;0.00;0.00;;;;;;;29.11;50.97;99104.41;5088884;28;20030;-80
2021/08/12 04:57:16;;;;;;;0.00;0.00;;;;;;;29.28;51.01;99106.28;5089555;28;20139;-81
2021/08/12 04:59:41;;;;;;;0.00;0.00;;;;;;;29.52;50.73;99101.06;5089274;28;20398;-80
2021/08/12 05:02:07;;;;;;;0.00;0.00;;;;;;;29.70;49.64;99100.97;5089424;28;20085;-81
2021/08/12 05:04:32;;;;;;;0.17;0.17;;;;;;;29.99;49.53;99106.25;5089114;28;20021;-81
2021/08/12 05:06:58;;;;;;;0.00;0.00;;;;;;;30.35;48.57;99109.47;5089288;28;20115;-81
2021/08/12 05:09:23;;;;;;;0.20;0.10;;;;;;;30.55;47.24;99108.16;5089228;28;20472;-81
2021/08/12 05:11:48;;;;;;;0.13;0.13;;;;;;;30.83;46.97;99107.03;5089123;28;20034;-81
2021/08/12 05:14:14;;;;;;;0.10;0.10;;;;;;;31.05;46.74;99107.53;5089011;28;20047;-81
2021/08/12 05:16:39;;;;;;;0.00;0.00;;;;;;;31.35;45.50;99108.78;5089101;28;20115;-80
2021/08/12 05:19:05;;;;;;;0.00;0.00;;;;;;;31.65;45.17;99104.41;5089251;28;20081;-80
2021/08/12 05:21:30;;;;;;;0.00;0.00;;;;;;;31.87;43.36;99102.09;5089693;28;20024;-80
2021/08/12 05:23:56;;;;;;;0.00;0.00;;;;;;;32.04;42.63;99107.75;5092996;28;20032;-80
2021/08/12 05:26:21;;;;;;;0.30;0.30;;;;;;;32.22;42.62;99111.00;5092738;28;20111;-81
2021/08/12 05:28:46;;;;;;;0.00;0.00;;;;;;;32.43;42.28;99106.28;5092459;28;20380;-80
2021/08/12 05:31:12;;;;;;;0.28;0.28;;;;;;;32.56;41.37;99112.00;5092535;28;20544;-81
2021/08/12 05:33:37;;;;;;;0.00;0.00;;;;;;;32.60;41.61;99114.69;5091903;28;20402;-80
2021/08/12 05:36:04;;;;;;;0.00;0.00;;;;;;;32.70;40.48;99117.25;5092230;28;20540;-80
2021/08/12 05:38:30;;;;;;;0.00;0.00;;;;;;;32.62;40.64;99123.34;5092583;28;20044;-80
2021/08/12 05:40:56;;;;;;;0.00;0.00;;;;;;;32.46;40.66;99121.25;5092503;28;20032;-80
2021/08/12 05:43:22;;;;;;;0.00;0.00;;;;;;;32.42;41.38;99124.09;5092633;28;20477;-80
2021/08/12 05:45:47;;;;;;;0.00;0.00;;;;;;;32.56;41.20;99123.06;5092321;28;20032;-80
2021/08/12 05:48:13;;;;;;;0.38;0.38;;;;;;;32.65;40.36;99123.28;5092344;28;20069;-80
2021/08/12 05:50:43;;;;;;;0.00;0.00;;;;;;;32.79;40.23;99127.00;5092155;28;20024;-79
2021/08/12 05:53:14;;;;;;;1.98;0.30;;;;;;;32.97;39.76;99124.66;5092419;28;20119;-80
2021/08/12 05:55:41;;;;;;;0.10;0.10;;;;;;;33.14;39.72;99128.28;5091969;28;20031;-80
2021/08/12 05:58:06;;;;;;;0.10;0.10;;;;;;;33.33;39.56;99123.94;5092303;28;20063;-82
2021/08/12 06:00:32;;;;;;;0.20;0.20;;;;;;;33.49;38.64;99134.25;5092003;28;20487;-80
2021/08/12 06:03:08;;;;;;;0.10;0.10;;;;;;;33.42;38.57;99137.19;5092116;28;20024;-79
2021/08/12 06:05:34;;;;;;;0.10;0.10;;;;;;;33.43;38.62;99135.22;5091897;28;20027;-79
2021/08/12 06:08:04;;;;;;;0.00;0.00;;;;;;;33.27;38.63;99119.31;5092139;28;20020;-78
2021/08/12 06:10:31;;;;;;;0.15;0.15;;;;;;;33.25;38.41;99136.38;5093816;28;20394;-79
2021/08/12 06:12:57;;;;;;;0.00;0.00;;;;;;;33.24;39.27;99140.34;5091809;28;20517;-79
2021/08/12 06:15:24;;;;;;;0.20;0.20;;;;;;;33.31;38.82;99139.41;5091677;28;20503;-79
2021/08/12 06:17:49;;;;;;;0.03;0.03;;;;;;;33.43;39.01;99152.63;5091749;28;20593;-79
2021/08/12 06:20:15;;;;;;;0.20;0.20;;;;;;;33.61;38.79;99140.34;5091776;28;20032;-80
2021/08/12 06:22:41;;;;;;;0.10;0.10;;;;;;;33.78;38.93;99147.47;5091586;28;20105;-80
2021/08/12 06:25:07;;;;;;;0.00;0.00;;;;;;;33.95;38.18;99148.28;5091744;28;20036;-79
2021/08/12 06:27:32;;;;;;;0.00;0.00;;;;;;;33.97;38.18;99145.06;5091602;28;20399;-79
2021/08/12 06:29:58;;;;;;;0.10;0.10;;;;;;;33.89;38.50;99146.47;5091428;28;20032;-79
2021/08/12 06:32:23;;;;;;;0.00;0.00;;;;;;;33.92;38.18;99153.91;5092749;28;20616;-79
2021/08/12 06:34:49;;;;;;;0.00;0.00;;;;;;;33.94;37.32;99151.50;5091306;28;20501;-79
2021/08/12 06:37:14;;;;;;;0.10;0.10;;;;;;;33.99;37.45;99148.97;5091533;28;20498;-79
2021/08/12 06:39:39;;;;;;;0.88;0.50;;;;;;;33.89;37.08;99152.78;5091277;28;20056;-80
2021/08/12 06:42:05;;;;;;;0.20;0.20;;;;;;;33.56;37.06;99144.41;5091482;28;20522;-79
2021/08/12 06:44:30;;;;;;;0.30;0.30;;;;;;;33.44;37.26;99156.19;5091381;28;20127;-80
2021/08/12 06:46:56;;;;;;;0.30;0.13;;;;;;;33.30;37.91;99146.97;5091076;28;20024;-80
2021/08/12 06:49:21;;;;;;;0.05;0.03;;;;;;;33.11;38.38;99153.28;5090682;28;20026;-79
2021/08/12 06:51:47;;;;;;;0.45;0.45;;;;;;;32.92;39.04;99161.16;5090896;28;20020;-80
2021/08/12 06:54:12;;;;;;;0.00;0.00;;;;;;;32.75;39.24;99151.19;5091081;28;20081;-79
2021/08/12 06:56:38;;;;;;;0.30;0.30;;;;;;;32.62;38.76;99159.31;5090806;28;20028;-81
2021/08/12 06:59:03;;;;;;;0.10;0.10;;;;;;;32.34;40.06;99158.66;5090937;28;20024;-80
2021/08/12 07:01:29;;;;;;;0.65;0.20;;;;;;;32.19;40.18;99155.31;5090885;28;20028;-80
2021/08/12 07:03:55;;;;;;;0.10;0.10;;;;;;;32.12;40.56;99152.66;5090681;28;20191;-81
2021/08/12 07:06:20;;;;;;;0.20;0.20;;;;;;;31.96;41.07;99153.31;5090889;28;20028;-81
2021/08/12 07:08:46;;;;;;;0.13;0.13;;;;;;;31.92;41.41;99162.47;5090580;28;20118;-81
2021/08/12 07:11:11;;;;;;;0.20;0.15;;;;;;;31.91;41.20;99162.88;5090731;28;20028;-81
2021/08/12 07:13:37;;;;;;;1.35;0.43;;;;;;;31.83;41.05;99151.13;5090505;28;20059;-80
2021/08/12 07:16:02;;;;;;;0.03;0.03;;;;;;;31.70;42.01;99161.22;5090381;28;20189;-80
2021/08/12 07:18:28;;;;;;;0.03;0.03;;;;;;;31.47;41.56;99165.47;5090613;28;20111;-80
2021/08/12 07:20:53;;;;;;;0.25;0.25;;;;;;;31.33;41.80;99152.59;5090422;28;20431;-80
2021/08/12 07:23:18;;;;;;;0.20;0.20;;;;;;;31.19;41.81;99163.84;5091882;28;20133;-80
2021/08/12 07:25:44;;;;;;;0.30;0.30;;;;;;;31.12;42.01;99168.25;5090383;28;20036;-81
2021/08/12 07:28:12;;;;;;;0.17;0.17;;;;;;;31.02;40.93;99163.63;5090432;28;20479;-80
2021/08/12 07:30:38;;;;;;;0.13;0.13;;;;;;;30.94;41.88;99168.44;5090183;28;20028;-81
2021/08/12 07:33:03;;;;;;;0.32;0.22;;;;;;;30.80;41.87;99179.66;5090291;28;20031;-80
2021/08/12 07:35:29;;;;;;;0.13;0.13;;;;;;;30.81;42.57;99173.72;5091595;28;20024;-81
2021/08/12 07:37:54;;;;;;;0.80;0.60;;;;;;;30.79;42.68;99176.09;5089849;28;20035;-81
2021/08/12 07:40:20;;;;;;;0.30;0.30;;;;;;;30.79;42.81;99183.59;5090303;28;20028;-81
2021/08/12 07:42:45;;;;;;;0.00;0.00;;;;;;;30.79;43.13;99178.84;5090067;28;20562;-81
2021/08/12 07:45:11;;;;;;;0.10;0.10;;;;;;;30.75;41.48;99182.84;5089873;28;20501;-81
2021/08/12 07:47:37;;;;;;;0.30;0.30;;;;;;;30.77;42.43;99180.47;5090073;28;20027;-80
2021/08/12 07:50:09;;;;;;;0.93;0.75;;;;;;;30.74;42.05;99179.31;5089947;28;20501;-81
2021/08/12 07:52:38;;;;;;;0.60;0.60;;;;;;;30.66;41.84;99180.56;5090211;28;20425;-81
2021/08/12 07:55:04;;;;;;;0.20;0.20;;;;;;;30.62;41.29;99179.81;5090094;28;20054;-80
2021/08/12 07:57:29;;;;;;;0.10;0.10;;;;;;;30.59;41.00;99181.44;5090029;28;20024;-82
2021/08/12 07:59:54;;;;;;;0.10;0.10;;;;;;;30.68;41.11;99189.22;5091110;28;20056;-82
2021/08/12 08:02:20;;;;;;;0.10;0.10;;;;;;;30.65;41.35;99187.28;5089673;28;20475;-81
2021/08/12 08:04:47;;;;;;;0.00;0.00;;;;;;;30.62;40.57;99191.63;5089898;28;20112;-78
2021/08/12 08:07:12;;;;;;;0.17;0.17;;;;;;;30.57;41.04;99191.31;5089972;28;20495;-81
2021/08/12 08:09:38;;;;;;;0.20;0.17;;;;;;;30.54;40.44;99192.91;5089806;28;20131;-80
2021/08/12 08:12:04;;;;;;;0.20;0.20;;;;;;;30.52;40.68;99187.00;5089681;28;20082;-81
2021/08/12 08:14:29;;;;;;;0.20;0.20;;;;;;;30.51;40.55;99190.97;5090867;28;20135;-81
2021/08/12 08:16:54;;;;;;;0.13;0.13;;;;;;;30.36;40.14;99184.78;5089512;28;20066;-82
2021/08/12 08:19:20;;;;;;;0.10;0.10;;;;;;;30.25;41.11;99186.81;5089780;28;20028;-80
2021/08/12 08:21:45;;;;;;;0.38;0.38;;;;;;;30.25;41.36;99184.06;5089497;28;20472;-81
2021/08/12 08:24:11;;;;;;;0.08;0.08;;;;;;;30.28;39.61;99186.00;5089687;28;20505;-79
2021/08/12 08:26:36;;;;;;;0.00;0.00;;;;;;;30.33;39.67;99185.56;5089685;28;20135;-82
2021/08/12 08:29:02;;;;;;;0.05;0.05;;;;;;;30.38;40.49;99181.59;5089185;28;20113;-81
2021/08/12 08:31:27;;;;;;;0.10;0.10;;;;;;;30.45;41.31;99187.81;5089688;28;20021;-81
2021/08/12 08:33:52;;;;;;;0.00;0.00;;;;;;;30.43;40.65;99170.09;5089211;28;20472;-79
2021/08/12 08:36:18;;;;;;;0.30;0.30;;;;;;;30.50;37.61;99183.88;5089644;28;20028;-81
2021/08/12 08:38:44;;;;;;;0.10;0.10;;;;;;;30.48;38.05;99181.50;5089355;28;20119;-81
2021/08/12 08:41:09;;;;;;;1.00;0.38;;;;;;;30.49;38.09;99177.59;5089561;28;20497;-79
2021/08/12 08:43:35;;;;;;;0.25;0.25;;;;;;;30.56;38.09;99181.47;5089649;28;20027;-80
2021/08/12 08:46:02;;;;;;;0.35;0.20;;;;;;;30.62;37.58;99177.84;5089407;28;20089;-79
2021/08/12 08:48:31;;;;;;;0.30;0.30;;;;;;;30.71;37.47;99180.13;5090373;28;20460;-80
2021/08/12 08:50:58;;;;;;;0.13;0.13;;;;;;;30.71;35.33;99182.88;5089192;28;20540;-80
2021/08/12 08:53:24;;;;;;;0.25;0.15;;;;;;;30.70;35.57;99184.09;5090572;28;20023;-80
2021/08/12 08:55:50;;;;;;;0.35;0.35;;;;;;;30.72;36.40;99178.91;5089202;28;20089;-79
2021/08/12 08:58:18;;;;;;;0.13;0.10;;;;;;;30.70;35.06;99175.81;5093061;28;20028;-79
2021/08/12 09:00:44;;;;;;;0.13;0.13;;;;;;;30.73;33.60;99180.50;5093163;28;20077;-79
2021/08/12 09:03:09;;;;;;;0.10;0.10;;;;;;;30.76;33.91;99174.16;5093256;28;20398;-80
2021/08/12 09:05:35;;;;;;;0.20;0.20;;;;;;;30.82;34.35;99177.25;5093246;28;20023;-79
2021/08/12 09:08:01;;;;;;;0.00;0.00;;;;;;;30.87;35.09;99174.06;5092925;28;20115;-81
2021/08/12 09:10:27;;;;;;;0.20;0.20;;;;;;;30.95;34.34;99169.22;5093213;28;20059;-80
2021/08/12 09:12:52;;;;;;;0.17;0.17;;;;;;;31.04;33.97;99166.75;5092970;28;20020;-82
2021/08/12 09:15:20;;;;;;;0.00;0.00;;;;;;;31.13;34.47;99169.06;5092790;28;20127;-79
2021/08/12 09:17:46;;;;;;;0.00;0.00;;;;;;;31.12;33.01;99168.25;5092715;28;20399;-79
2021/08/12 09:20:16;;;;;;;0.10;0.10;;;;;;;31.12;34.29;99170.25;5093046;28;20036;-79
2021/08/12 09:22:49;;;;;;;0.05;0.05;;;;;;;31.12;33.83;99162.72;5092815;28;20506;-78
2021/08/12 09:25:17;;;;;;;0.65;0.65;;;;;;;31.11;32.82;99174.19;5092943;28;20036;-81
2021/08/12 09:27:42;;;;;;;0.30;0.30;;;;;;;31.11;33.88;99163.91;5092865;28;20047;-80
2021/08/12 09:30:15;;;;;;;0.30;0.30;;;;;;;31.14;34.24;99160.34;5092477;28;20117;-80
2021/08/12 09:32:49;;;;;;;0.10;0.10;;;;;;;31.23;32.38;99161.81;5092759;28;20024;-81
2021/08/12 09:35:41;;;;;;;0.13;0.13;;;;;;;31.27;32.19;99159.78;5092718;28;20466;-81
2021/08/12 09:38:13;;;;;;;0.45;0.45;;;;;;;31.33;33.26;99160.13;5087958;28;20097;-81
2021/08/12 09:40:39;;;;;;;0.10;0.10;;;;;;;31.43;32.87;99159.19;5093917;28;20028;-81
2021/08/12 09:43:07;;;;;;;0.00;0.00;;;;;;;31.49;32.19;99168.56;5092425;28;20384;-81
2021/08/12 09:45:35;;;;;;;0.03;0.03;;;;;;;31.47;31.40;99171.00;5092488;28;20085;-81
2021/08/12 09:48:19;;;;;;;0.00;0.00;;;;;;;31.40;31.90;99166.31;5091980;28;20124;-81
2021/08/12 09:51:14;;;;;;;0.00;0.00;;;;;;;31.41;31.83;99167.13;5092206;28;20031;-80
2021/08/12 09:53:40;;;;;;;0.00;0.00;;;;;;;31.45;31.97;99168.63;5094063;28;20043;-80
2021/08/12 09:56:08;;;;;;;0.10;0.10;;;;;;;31.51;33.84;99168.19;5092076;28;20028;-81
2021/08/12 09:58:35;;;;;;;0.00;0.00;;;;;;;31.59;32.75;99158.56;5092282;28;20099;-81
2021/08/12 10:01:16;;;;;;;0.00;0.00;;;;;;;31.68;32.57;99158.09;5092092;28;20105;-81
2021/08/12 10:03:42;;;;;;;0.40;0.40;;;;;;;31.69;30.52;99156.88;5091929;28;20024;-82
2021/08/12 10:06:24;;;;;;;0.00;0.00;;;;;;;31.75;29.27;99160.72;5093442;28;20073;-81
2021/08/12 10:08:50;;;;;;;0.10;0.10;;;;;;;31.78;29.64;99166.22;5091594;28;20035;-81
2021/08/12 10:11:26;;;;;;;0.00;0.00;;;;;;;31.70;29.74;99158.44;5092025;28;20032;-82
2021/08/12 10:14:01;;;;;;;0.45;0.45;;;;;;;31.72;29.71;99167.88;5091604;28;20395;-81
2021/08/12 10:16:28;;;;;;;0.10;0.10;;;;;;;31.65;29.27;99156.94;5091997;28;20036;-80
2021/08/12 10:18:55;;;;;;;;;;;;;;;31.69;30.03;99156.88;5091794;28;20028;-80
2021/08/12 10:21:20;;;;;;;1.17;0.13;;;;;;;31.74;30.66;99157.19;5091829;28;20383;-81
2021/08/12 10:23:50;;;;;;;0.10;0.10;;;;;;;31.79;30.58;99147.66;5091507;28;20024;-81
2021/08/12 10:26:18;;;;;;;0.00;0.00;;;;;;;31.86;30.77;99147.56;5091337;28;20075;-81
2021/08/12 10:28:46;;;;;;;0.20;0.20;;;;;;;31.94;30.64;99139.91;5091584;28;20073;-80
2021/08/12 10:31:16;;;;;;;0.52;0.52;;;;;;;31.98;29.98;99146.16;5091610;28;20119;-81
2021/08/12 10:33:43;;;;;;;0.15;0.15;;;;;;;31.99;29.62;99142.19;5091632;28;20066;-80
2021/08/12 10:36:08;;;;;;;0.00;0.00;;;;;;;31.98;29.76;99143.38;5091158;28;20114;-81
2021/08/12 10:38:35;;;;;;;0.10;0.10;;;;;;;31.99;30.74;99133.91;5091541;28;20571;-80
2021/08/12 10:41:04;;;;;;;0.00;0.00;;;;;;;32.00;30.01;99141.00;5091289;28;20032;-81
2021/08/12 10:43:30;;;;;;;0.00;0.00;;;;;;;32.01;29.77;99144.56;5091551;28;20020;-81
2021/08/12 10:46:01;;;;;;;0.00;0.00;;;;;;;32.05;30.66;99139.75;5091207;28;20111;-81
2021/08/12 10:48:28;;;;;;;0.20;0.20;;;;;;;32.03;30.43;99131.88;5091028;28;20035;-81
2021/08/12 10:51:10;;;;;;;0.00;0.00;;;;;;;32.05;29.32;99140.50;5091094;28;20122;-81
2021/08/12 10:53:36;;;;;;;0.00;0.00;;;;;;;32.06;30.03;99128.25;5092561;28;20112;-81
2021/08/12 10:56:12;;;;;;;0.10;0.10;;;;;;;32.11;29.32;99126.22;5090798;28;20116;-80
2021/08/12 10:58:42;;;;;;;0.00;0.00;;;;;;;32.14;29.56;99122.59;5091192;28;20047;-80
2021/08/12 11:01:10;;;;;;;0.05;0.05;;;;;;;32.18;30.46;99120.56;5090882;28;20035;-80
2021/08/12 11:03:35;;;;;;;;;;;;;;;32.22;29.01;99130.38;5092813;28;20028;-81
2021/08/12 11:06:05;;;;;;;0.00;0.00;;;;;;;32.22;28.28;99130.38;5090472;28;19938;-80
2021/08/12 11:08:54;;;;;;;0.20;0.20;;;;;;;32.25;28.27;99112.16;5090807;28;20115;-80
2021/08/12 11:11:23;;;;;;;0.20;0.20;;;;;;;32.33;27.56;99113.59;5090973;28;20027;-80
2021/08/12 11:14:02;;;;;;;0.00;0.00;;;;;;;32.43;27.98;99109.06;5092028;28;20035;-80
2021/08/12 11:16:51;;;;;;;0.00;0.00;;;;;;;32.46;28.10;99116.53;5090774;28;20127;-79
2021/08/12 11:19:25;;;;;;;0.00;0.00;;;;;;;32.45;27.43;99117.72;5091429;28;20032;-79
2021/08/12 11:21:51;;;;;;;0.03;0.03;;;;;;;32.51;27.99;99104.97;5091739;28;20085;-81
2021/08/12 11:24:17;;;;;;;0.22;0.22;;;;;;;32.51;27.41;99102.19;5090474;28;20034;-80
2021/08/12 11:26:45;;;;;;;0.38;0.38;;;;;;;32.58;28.58;99101.28;5090414;28;20040;-80
2021/08/12 11:29:28;;;;;;;0.00;0.00;;;;;;;32.61;27.43;99111.50;5090372;28;20028;-79
2021/08/12 11:31:56;;;;;;;0.10;0.10;;;;;;;32.65;26.17;99119.72;5090068;28;20028;-80
2021/08/12 11:34:34;;;;;;;0.10;0.10;;;;;;;32.64;26.77;99099.59;5090394;28;20459;-80
2021/08/12 11:37:06;;;;;;;;;;;;;;;32.69;26.90;99110.16;5090762;28;20028;-80